createdAt,value
2019-03-12T00:00:17.945Z,0
2019-03-12T00:01:18.483Z,0
2019-03-12T00:02:18.503Z,0
2019-03-12T00:03:18.527Z,0
2019-03-12T00:04:18.266Z,0
2019-03-12T00:05:18.017Z,0
2019-03-12T00:06:18.305Z,0
2019-03-12T00:07:18.582Z,0
2019-03-12T00:08:18.075Z,0
2019-03-12T00:09:18.707Z,0
2019-03-12T00:10:18.379Z,0
2019-03-12T00:11:18.658Z,0
2019-03-12T00:12:18.404Z,0
2019-03-12T00:13:18.949Z,0
2019-03-12T00:14:18.821Z,0
2019-03-12T00:15:18.474Z,0
2019-03-12T00:16:18.881Z,0
2019-03-12T00:17:18.218Z,0
2019-03-12T00:18:18.518Z,0
2019-03-12T00:19:18.793Z,0
2019-03-12T00:20:18.276Z,0
2019-03-12T00:21:18.872Z,0
2019-03-12T00:22:18.670Z,0
2019-03-12T00:23:18.846Z,0
2019-03-12T00:24:18.870Z,0
2019-03-12T00:25:18.617Z,0
2019-03-12T00:26:18.382Z,0
2019-03-12T00:27:18.909Z,0
2019-03-12T00:28:18.952Z,0
2019-03-12T00:29:18.948Z,0
2019-03-12T00:30:18.704Z,0
2019-03-12T00:31:18.724Z,0
2019-03-12T00:32:18.744Z,0
2019-03-12T00:33:19.022Z,0
2019-03-12T00:34:18.797Z,0
2019-03-12T00:35:18.783Z,0
2019-03-12T00:36:18.852Z,0
2019-03-12T00:37:18.831Z,0
2019-03-12T00:38:19.107Z,0
2019-03-12T00:39:18.598Z,0
2019-03-12T00:40:19.395Z,0
2019-03-12T00:41:20.146Z,0
2019-03-12T00:42:19.175Z,0
2019-03-12T00:43:18.656Z,0
2019-03-12T00:44:19.480Z,0
2019-03-12T00:45:18.958Z,0
2019-03-12T00:46:18.974Z,0
2019-03-12T00:47:18.738Z,0
2019-03-12T00:48:19.018Z,0
2019-03-12T00:49:19.032Z,0
2019-03-12T00:50:19.037Z,0
2019-03-12T00:51:19.318Z,0
2019-03-12T00:52:18.811Z,0
2019-03-12T00:53:19.092Z,0
2019-03-12T00:54:18.846Z,0
2019-03-12T00:55:19.644Z,0
2019-03-12T00:56:19.140Z,0
2019-03-12T00:57:19.687Z,0
2019-03-12T00:58:19.435Z,0
2019-03-12T00:59:19.458Z,0
2019-03-12T01:00:19.211Z,0
2019-03-12T01:01:19.221Z,0
2019-03-12T01:02:19.244Z,0
2019-03-12T01:03:19.273Z,0
2019-03-12T01:04:19.270Z,0
2019-03-12T01:05:19.289Z,0
2019-03-12T01:06:19.305Z,0
2019-03-12T01:07:19.320Z,0
2019-03-12T01:08:19.339Z,0
2019-03-12T01:09:19.124Z,0
2019-03-12T01:10:19.128Z,0
2019-03-12T01:11:19.388Z,0
2019-03-12T01:12:19.771Z,0
2019-03-12T01:13:19.444Z,0
2019-03-12T01:14:19.694Z,0
2019-03-12T01:15:19.721Z,0
2019-03-12T01:16:19.572Z,0
2019-03-12T01:17:19.238Z,0
2019-03-12T01:18:20.706Z,0
2019-03-12T01:19:19.523Z,0
2019-03-12T01:20:19.803Z,0
2019-03-12T01:21:19.558Z,0
2019-03-12T01:22:19.576Z,0
2019-03-12T01:23:19.616Z,0
2019-03-12T01:24:19.348Z,0
2019-03-12T01:25:19.884Z,0
2019-03-12T01:26:19.635Z,0
2019-03-12T01:27:20.176Z,0
2019-03-12T01:28:19.753Z,0
2019-03-12T01:29:19.685Z,0
2019-03-12T01:30:19.706Z,0
2019-03-12T01:31:19.735Z,0
2019-03-12T01:32:19.740Z,0
2019-03-12T01:33:19.576Z,0
2019-03-12T01:34:20.037Z,0
2019-03-12T01:35:20.069Z,0
2019-03-12T01:36:19.591Z,0
2019-03-12T01:37:19.818Z,0
2019-03-12T01:38:19.576Z,0
2019-03-12T01:39:19.596Z,0
2019-03-12T01:40:20.140Z,0
2019-03-12T01:41:19.625Z,0
2019-03-12T01:42:20.436Z,0
2019-03-12T01:43:19.660Z,0
2019-03-12T01:44:20.481Z,0
2019-03-12T01:45:19.728Z,0
2019-03-12T01:46:19.708Z,0
2019-03-12T01:47:20.247Z,0
2019-03-12T01:48:20.341Z,0
2019-03-12T01:49:20.023Z,0
2019-03-12T01:50:20.041Z,0
2019-03-12T01:51:20.057Z,0
2019-03-12T01:52:20.074Z,0
2019-03-12T01:53:20.363Z,0
2019-03-12T01:54:20.115Z,0
2019-03-12T01:55:20.391Z,0
2019-03-12T01:56:20.163Z,0
2019-03-12T01:57:19.916Z,0
2019-03-12T01:58:21.290Z,0
2019-03-12T01:59:19.925Z,0
2019-03-12T02:00:20.745Z,0
2019-03-12T02:01:20.485Z,0
2019-03-12T02:02:20.791Z,0
2019-03-12T02:03:20.257Z,0
2019-03-12T02:04:20.284Z,0
2019-03-12T02:05:20.565Z,0
2019-03-12T02:06:20.048Z,0
2019-03-12T02:07:20.484Z,0
2019-03-12T02:08:20.608Z,0
2019-03-12T02:09:20.383Z,0
2019-03-12T02:10:20.115Z,0
2019-03-12T02:11:20.395Z,0
2019-03-12T02:12:20.412Z,0
2019-03-12T02:13:20.683Z,0
2019-03-12T02:14:20.442Z,0
2019-03-12T02:15:20.728Z,0
2019-03-12T02:16:20.474Z,0
2019-03-12T02:17:20.497Z,0
2019-03-12T02:18:21.037Z,0
2019-03-12T02:19:20.786Z,0
2019-03-12T02:20:20.544Z,0
2019-03-12T02:21:20.561Z,0
2019-03-12T02:22:20.898Z,0
2019-03-12T02:23:20.587Z,0
2019-03-12T02:24:20.611Z,0
2019-03-12T02:25:20.889Z,0
2019-03-12T02:26:20.921Z,0
2019-03-12T02:27:20.657Z,0
2019-03-12T02:28:20.936Z,0
2019-03-12T02:29:20.699Z,0
2019-03-12T02:30:20.773Z,0
2019-03-12T02:31:20.743Z,0
2019-03-12T02:32:20.487Z,0
2019-03-12T02:33:21.143Z,0
2019-03-12T02:34:21.332Z,0
2019-03-12T02:35:21.079Z,0
2019-03-12T02:36:20.823Z,0
2019-03-12T02:37:21.372Z,0
2019-03-12T02:38:21.110Z,0
2019-03-12T02:39:20.865Z,0
2019-03-12T02:40:20.884Z,0
2019-03-12T02:41:20.638Z,0
2019-03-12T02:42:21.441Z,0
2019-03-12T02:43:21.466Z,0
2019-03-12T02:44:21.210Z,0
2019-03-12T02:45:21.244Z,0
2019-03-12T02:46:20.739Z,0
2019-03-12T02:47:21.253Z,0
2019-03-12T02:48:21.116Z,0
2019-03-12T02:49:21.304Z,0
2019-03-12T02:50:20.928Z,0
2019-03-12T02:51:21.339Z,0
2019-03-12T02:52:21.338Z,0
2019-03-12T02:53:21.359Z,0
2019-03-12T02:54:21.382Z,0
2019-03-12T02:55:21.807Z,0
2019-03-12T02:56:21.155Z,0
2019-03-12T02:57:21.155Z,0
2019-03-12T02:58:21.708Z,0
2019-03-12T02:59:21.450Z,0
2019-03-12T03:00:20.949Z,0
2019-03-12T03:01:21.489Z,0
2019-03-12T03:02:21.245Z,0
2019-03-12T03:03:21.545Z,0
2019-03-12T03:04:21.282Z,0
2019-03-12T03:05:21.994Z,0
2019-03-12T03:06:21.595Z,0
2019-03-12T03:07:21.335Z,0
2019-03-12T03:08:21.873Z,0
2019-03-12T03:09:21.638Z,0
2019-03-12T03:10:21.653Z,0
2019-03-12T03:11:21.691Z,0
2019-03-12T03:12:21.621Z,0
2019-03-12T03:13:21.748Z,0
2019-03-12T03:14:21.811Z,0
2019-03-12T03:15:21.995Z,0
2019-03-12T03:16:26.020Z,0
2019-03-12T03:17:21.503Z,0
2019-03-12T03:18:21.501Z,0
2019-03-12T03:19:21.567Z,0
2019-03-12T03:20:21.850Z,0
2019-03-12T03:21:21.312Z,0
2019-03-12T03:22:21.573Z,0
2019-03-12T03:23:21.866Z,0
2019-03-12T03:24:22.151Z,0
2019-03-12T03:25:22.181Z,0
2019-03-12T03:26:22.263Z,0
2019-03-12T03:27:21.920Z,0
2019-03-12T03:28:21.674Z,0
2019-03-12T03:29:21.949Z,0
2019-03-12T03:30:22.001Z,0
2019-03-12T03:31:21.774Z,0
2019-03-12T03:32:21.855Z,0
2019-03-12T03:33:22.033Z,0
2019-03-12T03:34:29.559Z,0
2019-03-12T03:35:22.355Z,0
2019-03-12T03:36:21.799Z,0
2019-03-12T03:37:22.095Z,0
2019-03-12T03:38:22.123Z,0
2019-03-12T03:39:21.875Z,0
2019-03-12T03:40:22.138Z,0
2019-03-12T03:41:22.170Z,0
2019-03-12T03:42:22.216Z,0
2019-03-12T03:43:21.959Z,0
2019-03-12T03:44:21.774Z,0
2019-03-12T03:45:21.967Z,0
2019-03-12T03:46:22.238Z,0
2019-03-12T03:47:26.199Z,0
2019-03-12T03:48:22.542Z,0
2019-03-12T03:49:22.296Z,0
2019-03-12T03:50:22.347Z,0
2019-03-12T03:51:22.369Z,0
2019-03-12T03:52:22.337Z,0
2019-03-12T03:53:22.102Z,0
2019-03-12T03:54:22.109Z,0
2019-03-12T03:55:22.436Z,0
2019-03-12T03:56:22.676Z,0
2019-03-12T03:57:22.280Z,0
2019-03-12T03:58:22.461Z,0
2019-03-12T03:59:22.708Z,0
2019-03-12T04:00:22.587Z,0
2019-03-12T04:01:22.215Z,0
2019-03-12T04:02:22.501Z,0
2019-03-12T04:03:21.991Z,0
2019-03-12T04:04:22.268Z,0
2019-03-12T04:05:22.551Z,0
2019-03-12T04:06:22.590Z,0
2019-03-12T04:07:22.054Z,0
2019-03-12T04:08:22.605Z,0
2019-03-12T04:09:22.083Z,0
2019-03-12T04:10:22.485Z,0
2019-03-12T04:11:22.904Z,0
2019-03-12T04:12:22.973Z,0
2019-03-12T04:13:22.798Z,0
2019-03-12T04:14:22.689Z,0
2019-03-12T04:15:22.478Z,0
2019-03-12T04:16:22.724Z,0
2019-03-12T04:17:22.758Z,0
2019-03-12T04:18:22.764Z,0
2019-03-12T04:19:22.535Z,0
2019-03-12T04:20:22.803Z,0
2019-03-12T04:21:22.544Z,0
2019-03-12T04:22:22.861Z,0
2019-03-12T04:23:23.716Z,0
2019-03-12T04:24:22.592Z,0
2019-03-12T04:25:22.868Z,0
2019-03-12T04:26:22.939Z,0
2019-03-12T04:27:22.662Z,0
2019-03-12T04:28:22.666Z,0
2019-03-12T04:29:22.939Z,0
2019-03-12T04:30:22.702Z,0
2019-03-12T04:31:22.969Z,0
2019-03-12T04:32:23.292Z,0
2019-03-12T04:33:22.744Z,0
2019-03-12T04:34:23.013Z,0
2019-03-12T04:35:23.038Z,0
2019-03-12T04:36:23.314Z,0
2019-03-12T04:37:22.801Z,0
2019-03-12T04:38:23.334Z,0
2019-03-12T04:39:23.100Z,0
2019-03-12T04:40:22.584Z,0
2019-03-12T04:41:23.122Z,0
2019-03-12T04:42:22.877Z,0
2019-03-12T04:43:22.892Z,0
2019-03-12T04:44:22.644Z,0
2019-03-12T04:45:22.940Z,0
2019-03-12T04:46:23.203Z,0
2019-03-12T04:47:22.962Z,0
2019-03-12T04:48:23.246Z,0
2019-03-12T04:49:22.998Z,0
2019-03-12T04:50:23.538Z,0
2019-03-12T04:51:23.550Z,0
2019-03-12T04:52:23.317Z,0
2019-03-12T04:53:23.077Z,0
2019-03-12T04:54:23.331Z,0
2019-03-12T04:55:23.372Z,0
2019-03-12T04:56:22.846Z,0
2019-03-12T04:57:23.386Z,0
2019-03-12T04:58:23.411Z,0
2019-03-12T04:59:22.894Z,0
2019-03-12T05:00:23.445Z,0
2019-03-12T05:01:23.209Z,0
2019-03-12T05:02:23.473Z,0
2019-03-12T05:03:23.483Z,0
2019-03-12T05:04:23.762Z,0
2019-03-12T05:05:23.546Z,0
2019-03-12T05:06:26.268Z,0
2019-03-12T05:07:23.026Z,0
2019-03-12T05:08:23.044Z,0
2019-03-12T05:09:23.077Z,0
2019-03-12T05:10:23.601Z,0
2019-03-12T05:11:23.370Z,0
2019-03-12T05:12:23.371Z,0
2019-03-12T05:13:23.649Z,0
2019-03-12T05:14:23.658Z,0
2019-03-12T05:15:23.689Z,0
2019-03-12T05:16:23.808Z,0
2019-03-12T05:17:23.461Z,0
2019-03-12T05:18:23.488Z,0
2019-03-12T05:19:23.305Z,0
2019-03-12T05:20:23.767Z,0
2019-03-12T05:21:23.517Z,0
2019-03-12T05:22:23.539Z,4
2019-03-12T05:23:23.810Z,0
2019-03-12T05:24:23.825Z,0
2019-03-12T05:25:23.589Z,4
2019-03-12T05:26:23.591Z,4
2019-03-12T05:27:24.911Z,0
2019-03-12T05:28:23.632Z,4
2019-03-12T05:29:23.379Z,0
2019-03-12T05:30:24.091Z,4
2019-03-12T05:31:23.731Z,4
2019-03-12T05:32:23.957Z,8
2019-03-12T05:33:23.449Z,8
2019-03-12T05:34:25.835Z,8
2019-03-12T05:35:24.111Z,12
2019-03-12T05:36:23.503Z,8
2019-03-12T05:37:23.842Z,12
2019-03-12T05:38:24.317Z,16
2019-03-12T05:39:23.808Z,20
2019-03-12T05:40:23.560Z,24
2019-03-12T05:41:24.364Z,28
2019-03-12T05:42:24.144Z,32
2019-03-12T05:43:23.980Z,36
2019-03-12T05:44:23.900Z,36
2019-03-12T05:45:23.913Z,44
2019-03-12T05:46:24.453Z,48
2019-03-12T05:47:24.202Z,52
2019-03-12T05:48:24.372Z,60
2019-03-12T05:49:23.972Z,64
2019-03-12T05:50:24.015Z,72
2019-03-12T05:51:24.003Z,72
2019-03-12T05:52:24.285Z,84
2019-03-12T05:53:24.310Z,88
2019-03-12T05:54:24.059Z,96
2019-03-12T05:55:24.069Z,104
2019-03-12T05:56:24.375Z,104
2019-03-12T05:57:24.108Z,112
2019-03-12T05:58:24.121Z,112
2019-03-12T05:59:24.398Z,120
2019-03-12T06:00:23.962Z,128
2019-03-12T06:01:24.174Z,132
2019-03-12T06:02:24.447Z,144
2019-03-12T06:03:24.213Z,156
2019-03-12T06:04:24.485Z,164
2019-03-12T06:05:24.508Z,168
2019-03-12T06:06:24.522Z,176
2019-03-12T06:07:24.274Z,180
2019-03-12T06:08:24.290Z,188
2019-03-12T06:09:36.260Z,192
2019-03-12T06:10:24.849Z,196
2019-03-12T06:11:24.163Z,196
2019-03-12T06:12:24.361Z,200
2019-03-12T06:13:24.101Z,200
2019-03-12T06:14:24.394Z,200
2019-03-12T06:15:24.408Z,208
2019-03-12T06:16:24.680Z,220
2019-03-12T06:17:24.429Z,236
2019-03-12T06:18:24.446Z,252
2019-03-12T06:19:24.726Z,276
2019-03-12T06:20:24.765Z,308
2019-03-12T06:21:24.236Z,336
2019-03-12T06:22:24.514Z,364
2019-03-12T06:23:24.535Z,384
2019-03-12T06:24:24.290Z,396
2019-03-12T06:25:24.946Z,412
2019-03-12T06:26:24.320Z,428
2019-03-12T06:27:24.868Z,452
2019-03-12T06:28:24.352Z,480
2019-03-12T06:29:24.371Z,508
2019-03-12T06:30:27.841Z,524
2019-03-12T06:31:24.936Z,540
2019-03-12T06:32:25.243Z,552
2019-03-12T06:33:29.009Z,568
2019-03-12T06:34:24.710Z,584
2019-03-12T06:35:24.989Z,604
2019-03-12T06:36:25.004Z,620
2019-03-12T06:37:24.759Z,636
2019-03-12T06:38:24.773Z,652
2019-03-12T06:39:24.543Z,668
2019-03-12T06:40:25.333Z,676
2019-03-12T06:41:24.824Z,696
2019-03-12T06:42:24.577Z,724
2019-03-12T06:43:24.854Z,748
2019-03-12T06:44:25.135Z,780
2019-03-12T06:45:24.727Z,828
2019-03-12T06:46:24.657Z,872
2019-03-12T06:47:25.185Z,904
2019-03-12T06:48:24.675Z,904
2019-03-12T06:49:25.480Z,876
2019-03-12T06:50:25.001Z,824
2019-03-12T06:51:24.988Z,776
2019-03-12T06:52:25.021Z,780
2019-03-12T06:53:25.287Z,812
2019-03-12T06:54:25.037Z,844
2019-03-12T06:55:25.054Z,860
2019-03-12T06:56:24.810Z,868
2019-03-12T06:57:25.100Z,856
2019-03-12T06:58:25.107Z,852
2019-03-12T06:59:25.643Z,868
2019-03-12T07:00:25.134Z,880
2019-03-12T07:01:25.153Z,880
2019-03-12T07:02:25.169Z,884
2019-03-12T07:03:25.187Z,896
2019-03-12T07:04:25.204Z,900
2019-03-12T07:05:25.217Z,896
2019-03-12T07:06:24.976Z,884
2019-03-12T07:07:24.988Z,884
2019-03-12T07:08:25.706Z,876
2019-03-12T07:09:25.554Z,864
2019-03-12T07:10:25.564Z,836
2019-03-12T07:11:25.077Z,816
2019-03-12T07:12:25.859Z,808
2019-03-12T07:13:25.873Z,808
2019-03-12T07:14:27.104Z,812
2019-03-12T07:15:25.647Z,828
2019-03-12T07:16:25.573Z,864
2019-03-12T07:17:25.774Z,920
2019-03-12T07:18:25.440Z,984
2019-03-12T07:19:25.474Z,1036
2019-03-12T07:20:25.472Z,1068
2019-03-12T07:21:26.005Z,1084
2019-03-12T07:22:25.826Z,1068
2019-03-12T07:23:25.777Z,1020
2019-03-12T07:24:25.794Z,996
2019-03-12T07:25:26.092Z,1016
2019-03-12T07:26:25.826Z,1052
2019-03-12T07:27:25.579Z,1092
2019-03-12T07:28:25.871Z,1136
2019-03-12T07:29:25.618Z,1184
2019-03-12T07:30:25.634Z,1236
2019-03-12T07:31:26.037Z,1304
2019-03-12T07:32:25.667Z,1400
2019-03-12T07:33:25.984Z,1496
2019-03-12T07:34:38.640Z,1596
2019-03-12T07:35:27.163Z,1648
2019-03-12T07:36:25.727Z,1704
2019-03-12T07:37:25.489Z,1764
2019-03-12T07:38:26.039Z,1884
2019-03-12T07:39:26.048Z,1948
2019-03-12T07:40:27.310Z,1980
2019-03-12T07:41:38.549Z,2020
2019-03-12T07:42:26.095Z,2064
2019-03-12T07:43:25.847Z,2172
2019-03-12T07:44:25.874Z,2276
2019-03-12T07:45:26.169Z,2240
2019-03-12T07:46:25.906Z,2340
2019-03-12T07:47:37.972Z,2396
2019-03-12T07:48:25.943Z,2480
2019-03-12T07:49:25.945Z,2572
2019-03-12T07:50:26.226Z,2676
2019-03-12T07:51:25.979Z,2648
2019-03-12T07:52:26.534Z,2620
2019-03-12T07:53:26.277Z,2532
2019-03-12T07:54:26.292Z,2268
2019-03-12T07:55:29.628Z,2128
2019-03-12T07:56:25.802Z,2016
2019-03-12T07:57:25.815Z,1976
2019-03-12T07:58:39.707Z,2060
2019-03-12T07:59:26.116Z,2164
2019-03-12T08:00:26.404Z,2256
2019-03-12T08:01:27.585Z,2340
2019-03-12T08:02:26.457Z,2372
2019-03-12T08:03:26.456Z,2404
2019-03-12T08:04:26.221Z,2408
2019-03-12T08:05:28.209Z,2464
2019-03-12T08:06:25.972Z,2564
2019-03-12T08:07:26.265Z,2708
2019-03-12T08:08:26.272Z,2660
2019-03-12T08:09:26.603Z,2508
2019-03-12T08:10:26.302Z,2376
2019-03-12T08:11:26.055Z,2188
2019-03-12T08:12:26.627Z,2204
2019-03-12T08:13:26.348Z,2248
2019-03-12T08:14:29.480Z,2284
2019-03-12T08:15:30.497Z,2312
2019-03-12T08:16:26.663Z,2352
2019-03-12T08:17:26.221Z,2380
2019-03-12T08:18:26.430Z,2464
2019-03-12T08:19:26.722Z,2508
2019-03-12T08:20:26.303Z,2536
2019-03-12T08:21:29.217Z,2576
2019-03-12T08:22:26.518Z,2592
2019-03-12T08:23:26.789Z,2760
2019-03-12T08:24:26.811Z,2916
2019-03-12T08:25:26.818Z,3072
2019-03-12T08:26:26.575Z,3228
2019-03-12T08:27:28.438Z,3424
2019-03-12T08:28:26.927Z,3540
2019-03-12T08:29:26.886Z,3620
2019-03-12T08:30:27.166Z,3556
2019-03-12T08:31:26.660Z,3492
2019-03-12T08:32:28.896Z,3440
2019-03-12T08:33:26.727Z,3440
2019-03-12T08:34:26.713Z,3364
2019-03-12T08:35:26.727Z,3248
2019-03-12T08:36:26.739Z,3124
2019-03-12T08:37:27.035Z,3012
2019-03-12T08:38:27.045Z,2960
2019-03-12T08:39:27.055Z,2964
2019-03-12T08:40:26.815Z,2996
2019-03-12T08:41:26.577Z,3020
2019-03-12T08:42:26.851Z,3032
2019-03-12T08:43:26.596Z,3016
2019-03-12T08:44:28.870Z,3000
2019-03-12T08:45:27.001Z,3012
2019-03-12T08:46:28.859Z,3056
2019-03-12T08:47:27.203Z,3112
2019-03-12T08:48:26.735Z,3156
2019-03-12T08:49:27.242Z,3208
2019-03-12T08:50:27.510Z,3260
2019-03-12T08:51:27.271Z,3308
2019-03-12T08:52:27.024Z,3312
2019-03-12T08:53:27.561Z,3304
2019-03-12T08:54:28.171Z,3320
2019-03-12T08:55:27.336Z,3364
2019-03-12T08:56:27.088Z,3408
2019-03-12T08:57:27.108Z,3432
2019-03-12T08:58:27.391Z,3456
2019-03-12T08:59:26.873Z,3476
2019-03-12T09:00:28.853Z,3492
2019-03-12T09:01:27.438Z,3448
2019-03-12T09:02:26.934Z,3344
2019-03-12T09:03:27.205Z,3188
2019-03-12T09:04:27.490Z,3064
2019-03-12T09:05:27.345Z,3000
2019-03-12T09:06:27.266Z,2988
2019-03-12T09:07:27.539Z,2988
2019-03-12T09:08:27.654Z,2964
2019-03-12T09:09:27.577Z,2944
2019-03-12T09:10:27.328Z,2892
2019-03-12T09:11:27.605Z,2812
2019-03-12T09:12:27.622Z,2788
2019-03-12T09:13:27.115Z,2772
2019-03-12T09:14:27.408Z,2704
2019-03-12T09:15:27.685Z,2680
2019-03-12T09:16:27.708Z,2696
2019-03-12T09:17:27.198Z,2636
2019-03-12T09:18:28.005Z,2452
2019-03-12T09:19:27.759Z,2500
2019-03-12T09:20:27.790Z,2700
2019-03-12T09:21:27.779Z,2844
2019-03-12T09:22:27.540Z,2944
2019-03-12T09:23:27.295Z,3028
2019-03-12T09:24:27.570Z,3156
2019-03-12T09:25:27.589Z,3328
2019-03-12T09:26:27.871Z,3524
2019-03-12T09:27:27.632Z,3696
2019-03-12T09:28:27.915Z,3828
2019-03-12T09:29:27.921Z,3864
2019-03-12T09:30:27.938Z,3796
2019-03-12T09:31:27.737Z,3636
2019-03-12T09:32:27.725Z,3556
2019-03-12T09:33:27.995Z,3540
2019-03-12T09:34:27.484Z,3496
2019-03-12T09:35:28.023Z,3488
2019-03-12T09:36:27.787Z,3524
2019-03-12T09:37:27.798Z,3512
2019-03-12T09:38:28.078Z,3484
2019-03-12T09:39:27.831Z,3504
2019-03-12T09:40:27.627Z,3532
2019-03-12T09:41:28.136Z,3512
2019-03-12T09:42:28.145Z,3460
2019-03-12T09:43:27.639Z,3488
2019-03-12T09:44:28.181Z,3628
2019-03-12T09:45:28.463Z,3752
2019-03-12T09:46:28.010Z,3780
2019-03-12T09:47:27.968Z,3760
2019-03-12T09:48:28.003Z,3716
2019-03-12T09:49:29.904Z,3632
2019-03-12T09:50:28.023Z,3556
2019-03-12T09:51:28.307Z,3476
2019-03-12T09:52:28.326Z,3436
2019-03-12T09:53:28.079Z,3448
2019-03-12T09:54:27.830Z,3480
2019-03-12T09:55:28.377Z,3484
2019-03-12T09:56:28.133Z,3476
2019-03-12T09:57:27.952Z,3476
2019-03-12T09:58:28.171Z,3516
2019-03-12T09:59:28.714Z,3524
2019-03-12T10:00:27.936Z,3592
2019-03-12T10:01:27.958Z,3640
2019-03-12T10:02:27.977Z,3688
2019-03-12T10:03:28.256Z,3756
2019-03-12T10:04:28.514Z,3792
2019-03-12T10:05:28.553Z,3812
2019-03-12T10:06:28.570Z,3856
2019-03-12T10:07:28.062Z,3868
2019-03-12T10:08:28.602Z,3892
2019-03-12T10:09:28.098Z,3964
2019-03-12T10:10:28.656Z,4012
2019-03-12T10:11:28.749Z,4020
2019-03-12T10:12:28.414Z,4028
2019-03-12T10:13:28.432Z,4056
2019-03-12T10:14:28.222Z,4068
2019-03-12T10:15:28.476Z,4080
2019-03-12T10:16:28.743Z,4052
2019-03-12T10:17:29.033Z,3976
2019-03-12T10:18:28.800Z,3928
2019-03-12T10:19:28.276Z,3952
2019-03-12T10:20:28.814Z,4020
2019-03-12T10:21:28.572Z,4052
2019-03-12T10:22:28.855Z,4060
2019-03-12T10:23:28.868Z,4048
2019-03-12T10:24:31.328Z,4056
2019-03-12T10:25:28.382Z,4196
2019-03-12T10:26:29.254Z,4420
2019-03-12T10:27:28.433Z,4544
2019-03-12T10:28:28.701Z,4564
2019-03-12T10:29:29.240Z,4508
2019-03-12T10:30:29.005Z,4380
2019-03-12T10:31:28.750Z,4304
2019-03-12T10:32:29.026Z,4348
2019-03-12T10:33:28.786Z,4388
2019-03-12T10:34:36.769Z,4368
2019-03-12T10:35:28.821Z,4368
2019-03-12T10:36:30.969Z,4396
2019-03-12T10:37:29.118Z,4392
2019-03-12T10:38:28.883Z,4356
2019-03-12T10:39:28.885Z,4312
2019-03-12T10:40:29.186Z,4440
2019-03-12T10:41:29.186Z,4528
2019-03-12T10:42:28.684Z,4540
2019-03-12T10:43:28.963Z,4500
2019-03-12T10:44:29.254Z,4524
2019-03-12T10:45:28.904Z,4528
2019-03-12T10:46:28.834Z,4524
2019-03-12T10:47:29.035Z,4532
2019-03-12T10:48:29.414Z,4612
2019-03-12T10:49:42.164Z,4712
2019-03-12T10:50:29.380Z,4764
2019-03-12T10:51:28.910Z,4824
2019-03-12T10:52:28.861Z,4876
2019-03-12T10:53:29.405Z,4932
2019-03-12T10:54:29.424Z,4952
2019-03-12T10:55:28.920Z,4976
2019-03-12T10:56:29.200Z,4980
2019-03-12T10:57:29.219Z,4924
2019-03-12T10:58:29.499Z,4812
2019-03-12T10:59:28.987Z,4772
2019-03-12T11:00:29.536Z,4812
2019-03-12T11:01:29.554Z,4868
2019-03-12T11:02:29.313Z,4972
2019-03-12T11:03:29.325Z,5008
2019-03-12T11:04:29.618Z,4988
2019-03-12T11:05:29.512Z,4964
2019-03-12T11:06:29.392Z,5008
2019-03-12T11:07:29.923Z,5032
2019-03-12T11:08:29.695Z,5028
2019-03-12T11:09:30.013Z,5040
2019-03-12T11:10:29.615Z,5076
2019-03-12T11:11:29.475Z,5104
2019-03-12T11:12:29.232Z,5096
2019-03-12T11:13:29.527Z,5048
2019-03-12T11:14:29.272Z,5044
2019-03-12T11:15:29.295Z,5056
2019-03-12T11:16:29.826Z,5036
2019-03-12T11:17:30.111Z,4992
2019-03-12T11:18:29.615Z,4936
2019-03-12T11:19:29.358Z,4940
2019-03-12T11:20:29.646Z,4956
2019-03-12T11:21:30.182Z,4824
2019-03-12T11:22:29.684Z,4852
2019-03-12T11:23:29.965Z,4872
2019-03-12T11:24:30.029Z,4812
2019-03-12T11:25:34.794Z,4876
2019-03-12T11:26:30.271Z,5092
2019-03-12T11:27:30.027Z,5168
2019-03-12T11:28:31.192Z,5304
2019-03-12T11:29:29.802Z,5320
2019-03-12T11:30:29.817Z,5268
2019-03-12T11:31:29.961Z,4860
2019-03-12T11:32:29.600Z,4324
2019-03-12T11:33:30.414Z,4432
2019-03-12T11:34:29.894Z,4136
2019-03-12T11:35:40.674Z,4344
2019-03-12T11:36:30.394Z,4284
2019-03-12T11:37:29.964Z,4436
2019-03-12T11:38:30.683Z,4624
2019-03-12T11:39:30.617Z,4532
2019-03-12T11:40:35.367Z,4404
2019-03-12T11:41:30.656Z,3908
2019-03-12T11:42:30.311Z,4104
2019-03-12T11:43:30.100Z,4348
2019-03-12T11:44:30.673Z,4184
2019-03-12T11:45:43.302Z,3996
2019-03-12T11:46:40.617Z,3840
2019-03-12T11:47:30.370Z,3784
2019-03-12T11:48:30.438Z,3716
2019-03-12T11:49:30.274Z,3828
2019-03-12T11:50:31.016Z,3904
2019-03-12T11:51:30.045Z,4000
2019-03-12T11:52:30.802Z,4168
2019-03-12T11:53:30.577Z,4304
2019-03-12T11:54:31.059Z,4284
2019-03-12T11:55:30.470Z,4200
2019-03-12T11:56:30.908Z,4104
2019-03-12T11:57:30.451Z,4068
2019-03-12T11:58:30.456Z,4184
2019-03-12T11:59:30.828Z,4356
2019-03-12T12:00:31.129Z,4536
2019-03-12T12:01:30.391Z,4636
2019-03-12T12:02:30.152Z,4656
2019-03-12T12:03:30.435Z,4660
2019-03-12T12:04:30.202Z,4664
2019-03-12T12:05:30.822Z,4676
2019-03-12T12:06:30.298Z,4664
2019-03-12T12:07:30.581Z,4672
2019-03-12T12:08:30.800Z,4684
2019-03-12T12:09:30.575Z,4692
2019-03-12T12:10:30.784Z,4736
2019-03-12T12:11:30.583Z,4804
2019-03-12T12:12:30.603Z,4852
2019-03-12T12:13:30.953Z,4868
2019-03-12T12:14:30.898Z,4840
2019-03-12T12:15:31.190Z,4764
2019-03-12T12:16:30.676Z,4636
2019-03-12T12:17:30.954Z,4512
2019-03-12T12:18:30.715Z,4512
2019-03-12T12:19:30.726Z,4592
2019-03-12T12:20:36.735Z,4628
2019-03-12T12:21:31.024Z,4672
2019-03-12T12:22:31.049Z,4752
2019-03-12T12:23:31.067Z,4816
2019-03-12T12:24:34.002Z,4836
2019-03-12T12:25:30.838Z,4868
2019-03-12T12:26:31.383Z,4936
2019-03-12T12:27:30.621Z,4984
2019-03-12T12:28:30.894Z,5036
2019-03-12T12:29:30.650Z,5088
2019-03-12T12:30:30.930Z,5112
2019-03-12T12:31:31.212Z,5128
2019-03-12T12:32:31.229Z,5044
2019-03-12T12:33:31.258Z,4964
2019-03-12T12:34:31.279Z,4952
2019-03-12T12:35:31.030Z,4960
2019-03-12T12:36:31.050Z,4928
2019-03-12T12:37:31.102Z,4896
2019-03-12T12:38:31.339Z,4796
2019-03-12T12:39:31.369Z,4760
2019-03-12T12:40:30.854Z,4844
2019-03-12T12:41:31.503Z,4984
2019-03-12T12:42:31.157Z,4888
2019-03-12T12:43:31.510Z,4704
2019-03-12T12:44:31.199Z,4584
2019-03-12T12:45:31.557Z,4560
2019-03-12T12:46:31.233Z,4472
2019-03-12T12:47:31.516Z,4400
2019-03-12T12:48:31.792Z,4300
2019-03-12T12:49:31.289Z,4144
2019-03-12T12:50:31.311Z,4080
2019-03-12T12:51:31.853Z,4224
2019-03-12T12:52:31.342Z,4388
2019-03-12T12:53:31.363Z,4532
2019-03-12T12:54:31.127Z,4536
2019-03-12T12:55:31.409Z,4564
2019-03-12T12:56:31.425Z,4604
2019-03-12T12:57:31.703Z,4536
2019-03-12T12:58:31.463Z,4520
2019-03-12T12:59:31.746Z,4612
2019-03-12T13:00:31.500Z,4608
2019-03-12T13:01:31.284Z,4576
2019-03-12T13:02:31.846Z,4532
2019-03-12T13:03:31.292Z,4544
2019-03-12T13:04:31.834Z,4548
2019-03-12T13:05:31.851Z,4568
2019-03-12T13:06:31.608Z,4480
2019-03-12T13:07:31.635Z,4420
2019-03-12T13:08:31.915Z,4204
2019-03-12T13:09:31.929Z,3956
2019-03-12T13:10:31.948Z,3808
2019-03-12T13:11:31.706Z,3708
2019-03-12T13:12:31.989Z,3744
2019-03-12T13:13:31.743Z,3900
2019-03-12T13:14:43.798Z,4044
2019-03-12T13:15:32.306Z,4092
2019-03-12T13:16:32.839Z,3908
2019-03-12T13:17:31.565Z,3732
2019-03-12T13:18:32.363Z,3612
2019-03-12T13:19:32.246Z,3552
2019-03-12T13:20:31.888Z,3476
2019-03-12T13:21:32.157Z,3480
2019-03-12T13:22:32.175Z,3708
2019-03-12T13:23:31.675Z,3996
2019-03-12T13:24:32.211Z,4080
2019-03-12T13:25:32.069Z,4044
2019-03-12T13:26:31.726Z,4176
2019-03-12T13:27:44.323Z,4460
2019-03-12T13:28:32.286Z,4468
2019-03-12T13:29:32.051Z,4568
2019-03-12T13:30:31.877Z,4696
2019-03-12T13:31:32.444Z,4652
2019-03-12T13:32:32.254Z,4556
2019-03-12T13:33:32.180Z,4568
2019-03-12T13:34:32.400Z,4476
2019-03-12T13:35:32.158Z,4252
2019-03-12T13:36:31.913Z,3972
2019-03-12T13:37:32.205Z,3672
2019-03-12T13:38:48.102Z,3404
2019-03-12T13:39:32.612Z,3320
2019-03-12T13:40:32.679Z,3208
2019-03-12T13:41:32.618Z,3140
2019-03-12T13:42:32.428Z,3276
2019-03-12T13:43:32.818Z,3308
2019-03-12T13:44:32.564Z,3336
2019-03-12T13:45:33.661Z,3372
2019-03-12T13:46:33.010Z,3388
2019-03-12T13:47:35.893Z,3480
2019-03-12T13:48:32.628Z,3684
2019-03-12T13:49:32.528Z,3812
2019-03-12T13:50:33.308Z,3788
2019-03-12T13:51:32.770Z,3696
2019-03-12T13:52:32.917Z,3580
2019-03-12T13:53:32.678Z,3524
2019-03-12T13:54:32.695Z,3412
2019-03-12T13:55:32.886Z,3192
2019-03-12T13:56:32.964Z,3004